Time;durP1;ratioP1;P1;durP2;ratioP2;P2;SDS_P1;SDS_P2;PMS_P1;PMS_P2;Temp;Humidity;BMP_temperature;BMP_pressure;BME280_temperature;BME280_humidity;BME280_pressure;Samples;Min_cycle;Max_cycle;Signal;HPM_P1;HPM_P2
2021/10/15 00:01:17;;;;;;;35.10;28.60;;;;;;;11.68;100.00;100832.09;5012766;28;20041;-78
2021/10/15 00:03:45;;;;;;;39.25;28.70;;;;;;;11.82;100.00;100823.34;5027472;28;20049;-78
2021/10/15 00:06:12;;;;;;;44.03;28.13;;;;;;;11.76;100.00;100832.50;4996401;28;20053;-77
2021/10/15 00:08:39;;;;;;;38.88;30.05;;;;;;;11.81;100.00;100826.94;4996390;28;20064;-78
2021/10/15 00:11:06;;;;;;;39.38;29.23;;;;;;;11.71;100.00;100825.78;5035774;28;20281;-83
2021/10/15 00:13:34;;;;;;;33.67;26.75;;;;;;;11.77;100.00;100822.78;5004615;28;20144;-76
2021/10/15 00:16:01;;;;;;;38.85;28.10;;;;;;;11.70;100.00;100824.09;4995407;28;20046;-80
2021/10/15 00:18:28;;;;;;;32.72;26.90;;;;;;;11.76;100.00;100814.03;5014280;28;20038;-77
2021/10/15 00:20:55;;;;;;;31.85;26.05;;;;;;;11.72;100.00;100824.84;4998412;28;20403;-80
2021/10/15 00:23:22;;;;;;;31.73;24.92;;;;;;;11.84;100.00;100817.09;5011412;28;20107;-77
2021/10/15 00:25:50;;;;;;;34.67;27.42;;;;;;;11.74;100.00;100812.41;5027880;28;20053;-81
2021/10/15 00:28:17;;;;;;;33.80;25.42;;;;;;;11.76;100.00;100814.03;5033074;28;20140;-80
2021/10/15 00:30:44;;;;;;;31.50;24.83;;;;;;;11.75;100.00;100804.44;4996158;28;20050;-80
2021/10/15 00:33:11;;;;;;;36.75;27.70;;;;;;;11.56;100.00;100811.72;4995582;28;20079;-83
2021/10/15 00:35:39;;;;;;;36.55;24.10;;;;;;;11.46;100.00;100805.31;5011208;28;20128;-79
2021/10/15 00:38:06;;;;;;;31.27;24.00;;;;;;;11.53;100.00;100802.22;5012321;28;20049;-81
2021/10/15 00:40:33;;;;;;;30.75;22.70;;;;;;;11.43;100.00;100793.16;5011234;28;20132;-80
2021/10/15 00:43:00;;;;;;;28.92;23.83;;;;;;;11.59;100.00;100782.56;4981078;28;20053;-80
2021/10/15 00:45:28;;;;;;;28.25;22.17;;;;;;;11.64;100.00;100791.03;5011259;28;20341;-79
2021/10/15 00:47:55;;;;;;;27.38;21.15;;;;;;;11.63;100.00;100786.69;4988372;28;20208;-76
2021/10/15 00:50:22;;;;;;;28.15;20.10;;;;;;;11.71;100.00;100780.94;4998543;28;20069;-77
2021/10/15 00:52:49;;;;;;;28.63;21.75;;;;;;;11.64;100.00;100781.31;5013522;28;20065;-77
2021/10/15 00:55:16;;;;;;;23.10;18.55;;;;;;;11.61;100.00;100778.84;5009532;28;20053;-78
2021/10/15 00:57:43;;;;;;;30.70;21.88;;;;;;;11.62;100.00;100777.09;4999936;28;20140;-80
2021/10/15 01:00:11;;;;;;;28.10;19.65;;;;;;;11.51;100.00;100780.38;5023662;28;20114;-83
2021/10/15 01:02:38;;;;;;;25.33;19.27;;;;;;;11.36;100.00;100784.78;5052924;28;20052;-80
2021/10/15 01:05:06;;;;;;;25.17;20.00;;;;;;;11.42;100.00;100765.09;5013682;28;20045;-79
2021/10/15 01:07:33;;;;;;;26.25;19.10;;;;;;;11.41;100.00;100769.53;5030711;28;20060;-77
2021/10/15 01:10:00;;;;;;;24.30;20.13;;;;;;;11.31;100.00;100765.75;5005070;28;20037;-79
2021/10/15 01:12:28;;;;;;;21.52;17.85;;;;;;;11.30;100.00;100761.44;5022286;28;20253;-79
2021/10/15 01:14:55;;;;;;;22.77;17.20;;;;;;;11.33;100.00;100755.97;4996098;28;20053;-78
2021/10/15 01:17:22;;;;;;;24.70;18.05;;;;;;;11.38;100.00;100745.97;5008470;28;20551;-82
2021/10/15 01:19:53;;;;;;;20.48;16.85;;;;;;;11.50;100.00;100752.31;5013482;28;20125;-77
2021/10/15 01:22:25;;;;;;;21.77;17.27;;;;;;;11.36;100.00;100742.59;4988106;28;20449;-80
2021/10/15 01:24:52;;;;;;;22.58;17.95;;;;;;;11.29;100.00;100737.78;5023354;28;20045;-82
2021/10/15 01:27:20;;;;;;;24.30;18.38;;;;;;;11.32;100.00;100729.69;4989283;28;20591;-78
2021/10/15 01:29:47;;;;;;;20.98;16.63;;;;;;;11.43;100.00;100724.63;5011070;28;20070;-81
2021/10/15 01:32:16;;;;;;;22.77;17.70;;;;;;;11.49;100.00;100726.06;5011160;28;20140;-82
2021/10/15 01:34:43;;;;;;;20.27;16.77;;;;;;;11.45;100.00;100727.19;4998763;28;20045;-79
2021/10/15 01:37:11;;;;;;;20.45;16.30;;;;;;;11.49;100.00;100728.69;5031496;28;20100;-81
2021/10/15 01:39:38;;;;;;;21.70;16.77;;;;;;;11.38;100.00;100713.50;5009206;28;20109;-77
2021/10/15 01:42:05;;;;;;;20.90;15.98;;;;;;;11.44;100.00;100714.91;4995334;28;20450;-77
2021/10/15 01:44:33;;;;;;;20.92;16.50;;;;;;;11.45;100.00;100711.38;4991691;28;20076;-78
2021/10/15 01:47:00;;;;;;;20.02;16.15;;;;;;;11.36;100.00;100704.88;5012433;28;20055;-78
2021/10/15 01:49:27;;;;;;;20.88;14.93;;;;;;;11.42;100.00;100707.13;5016082;28;20507;-78
2021/10/15 01:51:54;;;;;;;19.20;15.50;;;;;;;11.48;100.00;100693.53;5007019;28;20053;-80
2021/10/15 01:54:22;;;;;;;22.73;15.82;;;;;;;11.39;100.00;100691.47;5006516;28;20059;-76
2021/10/15 01:56:49;;;;;;;19.25;14.68;;;;;;;11.41;100.00;100690.44;5012541;28;20164;-83
2021/10/15 01:59:16;;;;;;;22.85;14.98;;;;;;;11.24;100.00;100692.41;5025684;28;20332;-81
2021/10/15 02:01:44;;;;;;;17.15;15.27;;;;;;;11.28;100.00;100701.84;5001410;28;20383;-82
2021/10/15 02:04:11;;;;;;;19.30;15.18;;;;;;;11.36;100.00;100696.97;5007398;28;20133;-79
2021/10/15 02:06:38;;;;;;;19.38;15.45;;;;;;;11.34;100.00;100686.47;4997970;28;20136;-79
2021/10/15 02:09:06;;;;;;;15.80;14.10;;;;;;;11.46;100.00;100687.53;4991801;28;20174;-84
2021/10/15 02:11:33;;;;;;;20.77;16.00;;;;;;;11.39;100.00;100681.81;5010332;28;20080;-75
2021/10/15 02:14:00;;;;;;;20.40;14.90;;;;;;;11.51;100.00;100679.34;4993194;28;20232;-81
2021/10/15 02:16:27;;;;;;;18.83;13.70;;;;;;;11.60;100.00;100673.50;4994643;28;20059;-79
2021/10/15 02:18:54;;;;;;;19.67;15.82;;;;;;;11.50;100.00;100667.94;5009537;28;20124;-81
2021/10/15 02:21:21;;;;;;;19.55;14.52;;;;;;;11.55;100.00;100676.41;4999839;28;20072;-83
2021/10/15 02:23:49;;;;;;;22.83;16.08;;;;;;;11.53;100.00;100674.84;4989732;28;20075;-78
2021/10/15 02:26:20;;;;;;;17.63;13.60;;;;;;;11.48;100.00;100674.25;5010390;28;20172;-82
2021/10/15 02:28:48;;;;;;;17.98;13.95;;;;;;;11.44;100.00;100667.47;5014075;28;20152;-78
2021/10/15 02:31:15;;;;;;;17.77;14.73;;;;;;;11.27;100.00;100665.88;5009346;28;20131;-84
2021/10/15 02:33:42;;;;;;;16.65;13.98;;;;;;;11.38;100.00;100663.44;5022976;28;20056;-77
2021/10/15 02:36:09;;;;;;;17.63;14.68;;;;;;;11.29;100.00;100650.81;5014646;28;20051;-78
2021/10/15 02:38:36;;;;;;;17.52;13.65;;;;;;;11.31;100.00;100648.94;5025258;28;20076;-83
2021/10/15 02:41:04;;;;;;;18.15;13.85;;;;;;;11.26;100.00;100648.38;5024953;28;20491;-79
2021/10/15 02:43:31;;;;;;;22.58;15.32;;;;;;;11.16;100.00;100646.28;4992856;28;20312;-78
2021/10/15 02:45:58;;;;;;;16.88;13.95;;;;;;;11.25;100.00;100641.41;5009597;28;20473;-77
2021/10/15 02:48:25;;;;;;;18.33;15.00;;;;;;;11.31;100.00;100644.53;5008674;28;20535;-85
2021/10/15 02:50:53;;;;;;;16.45;13.20;;;;;;;11.35;100.00;100637.28;4994541;28;20083;-82
2021/10/15 02:53:20;;;;;;;19.45;13.43;;;;;;;11.44;100.00;100634.06;4987491;28;20057;-78
2021/10/15 02:55:47;;;;;;;20.42;14.13;;;;;;;11.26;100.00;100628.16;4990357;28;20099;-78
2021/10/15 02:58:14;;;;;;;17.17;14.00;;;;;;;11.31;100.00;100627.88;4992292;28;20488;-84
2021/10/15 03:00:42;;;;;;;17.10;12.60;;;;;;;11.36;100.00;100618.72;5002399;28;20057;-77
2021/10/15 03:03:10;;;;;;;16.35;13.40;;;;;;;11.37;100.00;100616.94;5014766;28;20049;-80
2021/10/15 03:05:37;;;;;;;19.38;14.30;;;;;;;11.31;100.00;100620.81;5008686;28;20051;-78
2021/10/15 03:08:04;;;;;;;15.07;12.93;;;;;;;11.27;100.00;100614.03;4977476;28;20080;-83
2021/10/15 03:10:32;;;;;;;15.85;12.63;;;;;;;11.35;100.00;100606.50;5017713;28;20500;-82
2021/10/15 03:12:59;;;;;;;14.85;12.60;;;;;;;11.39;100.00;100609.75;5010022;28;20474;-78
2021/10/15 03:15:26;;;;;;;17.40;12.68;;;;;;;11.27;100.00;100608.75;5007585;28;20300;-77
2021/10/15 03:17:53;;;;;;;15.90;13.02;;;;;;;11.07;100.00;100601.22;4994666;28;20111;-78
2021/10/15 03:20:21;;;;;;;16.13;12.63;;;;;;;11.12;100.00;100607.94;5004970;28;20132;-83
2021/10/15 03:22:48;;;;;;;15.68;12.85;;;;;;;11.24;100.00;100587.84;5006875;28;20203;-77
2021/10/15 03:25:15;;;;;;;16.52;12.35;;;;;;;11.33;100.00;100587.28;5019173;28;20319;-80
2021/10/15 03:27:42;;;;;;;14.13;12.23;;;;;;;11.24;100.00;100582.59;5011016;28;20045;-80
2021/10/15 03:30:10;;;;;;;14.93;12.82;;;;;;;11.29;100.00;100595.47;4989876;28;20100;-78
2021/10/15 03:32:37;;;;;;;13.25;11.68;;;;;;;11.13;100.00;100590.31;5009892;28;20504;-79
2021/10/15 03:35:04;;;;;;;16.05;10.88;;;;;;;11.37;100.00;100583.50;5029349;28;20053;-79
2021/10/15 03:37:31;;;;;;;14.70;12.05;;;;;;;11.28;100.00;100589.34;5010845;28;20136;-82
2021/10/15 03:39:59;;;;;;;15.45;11.15;;;;;;;11.36;100.00;100591.53;5007585;28;20045;-80
2021/10/15 03:42:26;;;;;;;14.05;11.35;;;;;;;11.39;100.00;100583.41;5007121;28;20144;-83
2021/10/15 03:44:53;;;;;;;12.55;11.05;;;;;;;11.38;100.00;100576.44;5008272;28;20056;-80
2021/10/15 03:47:21;;;;;;;13.95;10.93;;;;;;;11.41;100.00;100578.91;4989256;28;20141;-77
2021/10/15 03:49:49;;;;;;;13.68;10.63;;;;;;;11.39;100.00;100579.00;5007380;28;20128;-78
2021/10/15 03:52:16;;;;;;;14.20;11.10;;;;;;;11.32;100.00;100574.22;4994542;28;20054;-79
2021/10/15 03:54:43;;;;;;;16.58;10.50;;;;;;;11.47;100.00;100575.88;5012648;28;20045;-78
2021/10/15 03:57:10;;;;;;;17.35;11.27;;;;;;;11.38;100.00;100581.72;5010790;28;20065;-79
2021/10/15 03:59:37;;;;;;;13.85;10.65;;;;;;;11.39;100.00;100576.38;4989966;28;20474;-81
2021/10/15 04:02:05;;;;;;;16.88;10.52;;;;;;;11.46;100.00;100573.34;5027860;28;20156;-79
2021/10/15 04:04:32;;;;;;;20.35;17.50;;;;;;;11.34;100.00;100577.59;4990143;28;20154;-80
2021/10/15 04:06:59;;;;;;;13.50;12.10;;;;;;;11.22;100.00;100576.56;4981434;28;20085;-81
2021/10/15 04:09:26;;;;;;;13.10;10.23;;;;;;;11.21;100.00;100572.22;5013054;28;20530;-77
2021/10/15 04:11:55;;;;;;;13.93;10.52;;;;;;;11.29;100.00;100564.69;5015044;28;20049;-79
2021/10/15 04:14:23;;;;;;;14.23;10.98;;;;;;;11.09;100.00;100568.59;5007532;28;20665;-77
2021/10/15 04:16:50;;;;;;;13.57;10.27;;;;;;;11.16;100.00;100555.84;5011409;28;20381;-76
2021/10/15 04:19:18;;;;;;;13.35;10.60;;;;;;;11.21;100.00;100559.06;5025023;28;20053;-80
2021/10/15 04:21:45;;;;;;;11.70;10.50;;;;;;;11.20;100.00;100548.63;4997077;28;20124;-79
2021/10/15 04:24:12;;;;;;;10.57;9.48;;;;;;;11.27;100.00;100552.56;5017195;28;20140;-84
2021/10/15 04:26:39;;;;;;;11.32;9.40;;;;;;;11.15;100.00;100556.81;5010879;28;20141;-79
2021/10/15 04:29:06;;;;;;;12.35;10.05;;;;;;;11.22;100.00;100544.97;5026124;28;20061;-85
2021/10/15 04:31:35;;;;;;;10.75;9.15;;;;;;;11.16;100.00;100543.53;4994412;28;20068;-79
2021/10/15 04:34:02;;;;;;;11.48;10.27;;;;;;;11.16;100.00;100537.41;5010202;28;20050;-84
2021/10/15 04:36:29;;;;;;;11.90;10.23;;;;;;;11.10;100.00;100537.81;4990151;28;20452;-80
2021/10/15 04:38:56;;;;;;;13.27;9.48;;;;;;;11.25;100.00;100533.34;5028805;28;20073;-83
2021/10/15 04:41:23;;;;;;;11.93;9.80;;;;;;;11.20;100.00;100524.91;5012775;28;20129;-78
2021/10/15 04:43:51;;;;;;;18.48;10.45;;;;;;;11.19;100.00;100525.84;4997917;28;20144;-78
2021/10/15 04:46:18;;;;;;;15.50;10.50;;;;;;;11.16;100.00;100511.06;5036161;28;20493;-78
2021/10/15 04:48:45;;;;;;;13.45;10.35;;;;;;;11.08;100.00;100508.09;5011418;28;20144;-78
2021/10/15 04:51:12;;;;;;;12.48;9.32;;;;;;;11.11;100.00;100506.09;4994964;28;20045;-81
2021/10/15 04:53:40;;;;;;;15.10;9.25;;;;;;;11.21;100.00;100503.72;5017857;28;20042;-79
2021/10/15 04:56:07;;;;;;;13.27;9.80;;;;;;;11.12;100.00;100499.91;5011364;28;20171;-82
2021/10/15 04:58:34;;;;;;;13.48;10.25;;;;;;;11.19;100.00;100505.63;5011933;28;20054;-80
2021/10/15 05:01:01;;;;;;;17.25;11.38;;;;;;;11.13;100.00;100488.41;5024460;28;20148;-79
2021/10/15 05:03:29;;;;;;;14.07;10.38;;;;;;;10.99;100.00;100492.88;5012641;28;20492;-83
2021/10/15 05:05:56;;;;;;;13.02;10.43;;;;;;;11.06;100.00;100473.09;5004058;28;20443;-78
2021/10/15 05:08:28;;;;;;;15.02;9.63;;;;;;;11.10;100.00;100478.06;5021620;28;20714;-79
2021/10/15 05:10:55;;;;;;;11.40;9.88;;;;;;;11.06;100.00;100478.34;5018919;28;20124;-77
2021/10/15 05:13:23;;;;;;;15.38;10.68;;;;;;;11.07;100.00;100469.50;4995610;28;20726;-79
2021/10/15 05:15:50;;;;;;;12.88;9.95;;;;;;;11.05;100.00;100464.34;5001062;28;20065;-80
2021/10/15 05:18:17;;;;;;;13.93;9.70;;;;;;;11.00;100.00;100471.69;5003928;28;20140;-82
2021/10/15 05:20:45;;;;;;;13.35;9.35;;;;;;;11.00;100.00;100461.16;4976384;28;20120;-81
2021/10/15 05:23:13;;;;;;;13.57;9.43;;;;;;;11.05;100.00;100459.06;5026646;28;20132;-84
2021/10/15 05:25:41;;;;;;;13.43;9.55;;;;;;;11.10;100.00;100451.72;5009087;28;20056;-79
2021/10/15 05:28:08;;;;;;;15.70;9.93;;;;;;;11.05;100.00;100456.44;5011052;28;20060;-81
2021/10/15 05:30:35;;;;;;;17.38;10.07;;;;;;;11.10;100.00;100442.97;5018772;28;20037;-79
2021/10/15 05:33:02;;;;;;;10.65;8.95;;;;;;;11.06;100.00;100433.56;4997627;28;20492;-85
2021/10/15 05:35:32;;;;;;;12.95;9.82;;;;;;;11.08;100.00;100435.19;4993033;28;20053;-79
2021/10/15 05:37:59;;;;;;;17.98;9.70;;;;;;;11.02;100.00;100432.06;5011090;28;20066;-77
2021/10/15 05:40:26;;;;;;;13.70;8.93;;;;;;;10.94;100.00;100436.97;4993578;28;20046;-77
2021/10/15 05:42:53;;;;;;;14.90;9.35;;;;;;;10.83;100.00;100442.94;4997593;28;20152;-79
2021/10/15 05:45:20;;;;;;;12.15;8.65;;;;;;;10.87;100.00;100428.63;4994156;28;20079;-80
2021/10/15 05:47:48;;;;;;;11.60;8.65;;;;;;;10.89;100.00;100424.09;4981583;28;20041;-81
2021/10/15 05:50:15;;;;;;;12.85;8.75;;;;;;;11.02;100.00;100429.44;5025231;28;20041;-83
2021/10/15 05:52:50;;;;;;;15.73;8.77;;;;;;;11.03;100.00;100416.19;4999063;28;20139;-78
2021/10/15 06:00:59;;;;;;;11.25;7.65;;;;;;;11.25;100.00;100414.78;5015371;28;20045;-82
2021/10/15 06:03:26;;;;;;;10.68;6.85;;;;;;;11.33;100.00;100405.44;5002454;28;20520;-79
2021/10/15 06:16:33;;;;;;;18.02;7.88;;;;;;;11.49;100.00;100400.00;5009604;28;20124;-83
2021/10/15 06:19:08;;;;;;;11.20;7.07;;;;;;;11.50;100.00;100400.84;4978297;28;20103;-82
2021/10/15 06:21:36;;;;;;;10.73;7.13;;;;;;;11.52;100.00;100397.16;4993790;28;20061;-79
2021/10/15 06:24:03;;;;;;;11.48;7.70;;;;;;;11.50;100.00;100395.56;5012888;28;20084;-81
2021/10/15 06:26:30;;;;;;;10.70;6.40;;;;;;;11.58;100.00;100394.13;5012306;28;20129;-82
2021/10/15 06:28:58;;;;;;;10.20;7.30;;;;;;;11.68;100.00;100391.72;4994696;28;20144;-82
2021/10/15 06:31:25;;;;;;;9.13;6.43;;;;;;;11.60;100.00;100378.19;4962843;28;20038;-81
2021/10/15 06:33:52;;;;;;;9.77;7.00;;;;;;;11.77;99.46;100377.06;5011096;28;20053;-80
2021/10/15 06:36:19;;;;;;;13.77;6.70;;;;;;;11.71;99.77;100380.97;5028596;28;20144;-82
2021/10/15 06:38:46;;;;;;;11.00;6.63;;;;;;;11.77;99.63;100377.91;5010485;28;20061;-81
2021/10/15 06:41:14;;;;;;;11.93;7.15;;;;;;;11.66;100.00;100376.00;5036321;28;20100;-82
2021/10/15 06:43:41;;;;;;;11.90;6.78;;;;;;;11.70;100.00;100373.97;4977126;28;20073;-78
2021/10/15 06:46:12;;;;;;;7.95;5.90;;;;;;;11.86;98.80;100376.47;5000054;28;20076;-77
2021/10/15 06:48:40;;;;;;;13.63;6.07;;;;;;;11.98;98.85;100369.50;5025530;28;20049;-81
2021/10/15 06:51:07;;;;;;;9.40;6.25;;;;;;;11.97;98.67;100376.56;5013844;28;20152;-79
2021/10/15 06:53:35;;;;;;;15.40;7.43;;;;;;;11.97;98.35;100373.94;5027139;28;20401;-77
2021/10/15 06:56:02;;;;;;;12.65;6.63;;;;;;;11.96;98.49;100374.03;5019398;28;20181;-79
2021/10/15 06:58:32;;;;;;;9.45;5.78;;;;;;;12.03;97.54;100375.31;5019795;28;20050;-81
2021/10/15 07:00:59;;;;;;;14.02;6.18;;;;;;;12.09;96.86;100374.88;5011160;28;20052;-79
2021/10/15 07:03:26;;;;;;;8.48;5.30;;;;;;;12.19;96.02;100372.44;5013355;28;20472;-77
2021/10/15 07:05:54;;;;;;;11.35;5.90;;;;;;;12.12;97.37;100378.16;5000298;28;20049;-83
2021/10/15 07:08:21;;;;;;;11.55;5.55;;;;;;;12.24;96.13;100372.97;5009324;28;20050;-77
2021/10/15 07:10:48;;;;;;;9.35;5.68;;;;;;;12.31;95.08;100376.88;5000052;28;20083;-77
2021/10/15 07:13:15;;;;;;;7.38;5.13;;;;;;;12.23;95.05;100368.66;5009796;28;20524;-85
2021/10/15 07:15:45;;;;;;;9.63;5.80;;;;;;;12.04;95.69;100377.00;5021134;28;20502;-81
2021/10/15 07:22:19;;;;;;;10.95;5.13;;;;;;;11.94;97.32;100379.44;4994194;28;20140;-83
2021/10/15 07:24:47;;;;;;;9.80;5.63;;;;;;;12.12;95.75;100372.88;5022679;28;20056;-85
2021/10/15 07:27:14;;;;;;;8.32;5.38;;;;;;;12.16;95.29;100371.72;5031574;28;20094;-82
2021/10/15 07:29:41;;;;;;;8.27;4.85;;;;;;;12.03;95.35;100373.53;5050337;28;20032;-81
2021/10/15 07:32:08;;;;;;;9.13;5.30;;;;;;;12.16;94.60;100373.53;5024636;28;20058;-79
2021/10/15 07:34:35;;;;;;;6.13;4.75;;;;;;;12.13;95.48;100364.00;4998801;28;20136;-80
2021/10/15 07:37:03;;;;;;;7.63;5.07;;;;;;;12.06;95.42;100365.38;5018214;28;20098;-80
2021/10/15 07:39:30;;;;;;;10.40;5.45;;;;;;;12.00;95.68;100367.59;4997055;28;20705;-78
2021/10/15 07:41:57;;;;;;;8.38;4.90;;;;;;;12.28;92.96;100361.25;5023897;28;20148;-77
2021/10/15 07:44:24;;;;;;;11.82;5.63;;;;;;;12.29;93.35;100360.28;4983991;28;20652;-78
2021/10/15 07:46:52;;;;;;;11.07;5.97;;;;;;;12.36;93.05;100357.13;5028317;28;20073;-79
2021/10/15 07:49:20;;;;;;;7.85;5.10;;;;;;;12.55;90.90;100356.66;5003307;28;20113;-80
2021/10/15 07:51:47;;;;;;;9.48;5.45;;;;;;;12.55;91.16;100351.38;5011840;28;20551;-83
2021/10/15 07:54:14;;;;;;;7.55;5.00;;;;;;;12.75;90.75;100357.03;4989608;28;20479;-81
2021/10/15 07:56:41;;;;;;;7.18;4.78;;;;;;;12.85;88.82;100355.41;4994859;28;20033;-78
2021/10/15 07:59:13;;;;;;;11.02;5.28;;;;;;;12.88;89.00;100349.91;4988150;28;20172;-82
2021/10/15 08:01:41;;;;;;;8.23;5.55;;;;;;;12.90;88.30;100353.28;4999801;28;20087;-78
2021/10/15 08:04:08;;;;;;;8.55;5.05;;;;;;;12.91;88.68;100352.31;5015720;28;20060;-82
2021/10/15 08:06:48;;;;;;;9.63;6.00;;;;;;;13.18;87.69;100358.22;5000167;28;20429;-80
2021/10/15 08:09:15;;;;;;;9.55;4.75;;;;;;;13.17;86.13;100353.88;4992759;28;20133;-83
2021/10/15 08:11:42;;;;;;;8.68;4.53;;;;;;;13.30;85.42;100353.00;5015582;28;20063;-83
2021/10/15 08:14:09;;;;;;;8.57;4.72;;;;;;;13.02;87.38;100354.19;4982190;28;20070;-85
2021/10/15 08:16:36;;;;;;;7.50;4.40;;;;;;;13.11;86.63;100349.06;5026841;28;20064;-78
2021/10/15 08:19:03;;;;;;;10.05;4.53;;;;;;;12.91;87.66;100350.50;5029166;28;20058;-78
2021/10/15 08:21:31;;;;;;;14.10;5.57;;;;;;;13.11;86.60;100343.78;5002007;28;20053;-78
2021/10/15 08:23:58;;;;;;;11.75;5.00;;;;;;;13.23;86.23;100351.78;5009377;28;20483;-83
2021/10/15 08:26:25;;;;;;;7.18;4.43;;;;;;;13.10;86.86;100338.59;4993556;28;20041;-79
2021/10/15 08:28:58;;;;;;;6.95;4.43;;;;;;;13.09;86.78;100353.59;5015435;28;20046;-83
2021/10/15 08:31:27;;;;;;;7.90;4.93;;;;;;;12.95;87.25;100352.94;4976182;28;20072;-78
2021/10/15 08:33:55;;;;;;;13.75;4.43;;;;;;;12.85;87.92;100348.31;5010904;28;20144;-84
2021/10/15 08:36:23;;;;;;;10.52;4.50;;;;;;;12.80;88.33;100347.81;5037100;28;20129;-78
2021/10/15 08:38:50;;;;;;;11.48;4.40;;;;;;;12.80;89.12;100347.81;4995736;28;20464;-80
2021/10/15 08:41:23;;;;;;;7.38;4.65;;;;;;;12.90;88.63;100346.19;5010815;28;20042;-78
2021/10/15 08:43:55;;;;;;;9.32;4.53;;;;;;;12.98;88.00;100336.88;5006281;28;20125;-81
2021/10/15 08:46:22;;;;;;;10.50;4.45;;;;;;;13.06;87.42;100340.63;4975334;28;20342;-79
2021/10/15 08:48:53;;;;;;;13.93;4.15;;;;;;;13.17;87.28;100339.84;5013991;28;20045;-79
2021/10/15 08:51:21;;;;;;;8.02;3.58;;;;;;;13.35;85.79;100338.50;5011366;28;20140;-83
2021/10/15 08:53:53;;;;;;;5.88;3.63;;;;;;;13.43;84.87;100332.63;5008152;28;20056;-78
2021/10/15 08:56:21;;;;;;;7.07;3.58;;;;;;;13.47;84.83;100320.03;5007059;28;20100;-81
2021/10/15 08:58:57;;;;;;;10.07;3.35;;;;;;;13.66;82.04;100326.44;5012045;28;20136;-79
2021/10/15 09:01:29;;;;;;;7.82;4.10;;;;;;;13.76;81.98;100325.72;5010954;28;20052;-79
2021/10/15 09:04:04;;;;;;;5.43;3.00;;;;;;;13.83;81.99;100324.31;5011335;28;20061;-85
2021/10/15 09:06:38;;;;;;;6.53;3.42;;;;;;;13.83;81.63;100335.72;5012330;28;20071;-79
2021/10/15 09:09:06;;;;;;;4.95;2.85;;;;;;;13.67;82.19;100332.56;5025901;28;20060;-81
2021/10/15 09:11:40;;;;;;;7.25;3.28;;;;;;;13.51;83.21;100332.91;5003813;28;20081;-78
2021/10/15 09:14:17;;;;;;;7.53;3.03;;;;;;;13.47;83.05;100338.53;5026521;28;20057;-79
2021/10/15 09:16:51;;;;;;;5.85;3.08;;;;;;;13.29;84.42;100351.34;5013374;28;20060;-75
2021/10/15 09:19:41;;;;;;;6.93;2.80;;;;;;;13.17;85.91;100347.75;5030144;28;20118;-76
2021/10/15 09:22:12;;;;;;;5.32;2.80;;;;;;;13.36;84.30;100355.19;5003123;28;20060;-76
2021/10/15 09:25:00;;;;;;;9.30;3.22;;;;;;;13.50;82.86;100344.41;5022022;28;20041;-82
2021/10/15 09:27:38;;;;;;;7.07;2.78;;;;;;;13.24;85.13;100345.53;4978869;28;20132;-80
2021/10/15 09:30:07;;;;;;;7.03;2.63;;;;;;;13.58;83.04;100342.03;5009737;28;20556;-83
2021/10/15 09:32:54;;;;;;;5.60;2.53;;;;;;;13.93;81.14;100327.91;5007543;28;20049;-77
2021/10/15 09:35:23;;;;;;;6.10;2.38;;;;;;;14.10;79.63;100334.56;4970027;28;20088;-77
2021/10/15 09:37:59;;;;;;;3.88;2.45;;;;;;;13.85;81.16;100333.78;5026991;28;20050;-77
2021/10/15 09:40:37;;;;;;;5.95;2.38;;;;;;;14.10;79.71;100337.19;4976497;28;20132;-75
2021/10/15 09:43:06;;;;;;;7.80;2.83;;;;;;;14.22;78.64;100332.72;5012858;28;20052;-84
2021/10/15 09:45:39;;;;;;;5.60;1.90;;;;;;;14.32;77.51;100328.38;5011513;28;20136;-80
2021/10/15 09:48:20;;;;;;;6.28;2.60;;;;;;;14.40;77.29;100328.63;5012528;28;20053;-82
2021/10/15 09:51:17;;;;;;;4.32;1.92;;;;;;;14.36;77.19;100335.13;5006509;28;20567;-82
2021/10/15 09:54:09;;;;;;;4.80;2.42;;;;;;;14.11;77.84;100328.28;4997690;28;20340;-82
2021/10/15 09:56:43;;;;;;;7.25;2.50;;;;;;;13.89;79.58;100334.41;4999522;28;20111;-82
2021/10/15 09:59:11;;;;;;;5.05;2.30;;;;;;;13.78;79.74;100331.72;5010458;28;20142;-84
2021/10/15 10:01:39;;;;;;;7.43;3.17;;;;;;;13.79;80.10;100330.78;4977566;28;20049;-80
2021/10/15 10:04:07;;;;;;;6.30;2.80;;;;;;;13.63;80.05;100326.66;5019838;28;20160;-83
2021/10/15 10:06:35;;;;;;;5.53;2.38;;;;;;;13.49;82.21;100326.88;4995757;28;20137;-82
2021/10/15 10:09:05;;;;;;;6.10;2.47;;;;;;;13.48;82.98;100327.84;4993967;28;20094;-84
2021/10/15 10:11:32;;;;;;;7.22;2.88;;;;;;;13.38;81.89;100322.41;5002225;28;20046;-77
2021/10/15 10:14:17;;;;;;;6.57;2.38;;;;;;;13.62;80.73;100332.06;5012384;28;20510;-80
2021/10/15 10:16:45;;;;;;;3.78;2.30;;;;;;;13.51;81.73;100318.81;5003327;28;20141;-78
2021/10/15 10:19:14;;;;;;;5.35;2.33;;;;;;;13.56;80.79;100320.16;4976110;28;20069;-82
2021/10/15 10:21:41;;;;;;;7.70;2.35;;;;;;;13.39;82.52;100321.44;5013908;28;20052;-80
2021/10/15 10:24:19;;;;;;;5.70;2.25;;;;;;;13.53;82.04;100322.19;5016663;28;20151;-84
2021/10/15 10:26:49;;;;;;;4.78;2.58;;;;;;;13.64;81.12;100319.56;4995719;28;20046;-79
2021/10/15 10:29:17;;;;;;;7.30;2.50;;;;;;;13.82;80.47;100309.38;5008527;28;20152;-81
2021/10/15 10:31:44;;;;;;;4.90;2.20;;;;;;;13.92;79.82;100318.28;4984032;28;20049;-77
2021/10/15 10:34:14;;;;;;;7.78;2.53;;;;;;;13.80;79.53;100316.59;5012506;28;20050;-82
2021/10/15 10:36:41;;;;;;;5.90;2.78;;;;;;;13.84;79.29;100318.88;4998149;28;20054;-79
2021/10/15 10:39:36;;;;;;;5.53;2.03;;;;;;;13.66;80.22;100321.13;4991668;28;20081;-81
2021/10/15 10:42:09;;;;;;;3.42;2.30;;;;;;;13.38;82.16;100319.75;4993727;28;20136;-78
2021/10/15 10:44:48;;;;;;;5.15;2.45;;;;;;;13.29;83.03;100324.91;5024244;28;20039;-81
2021/10/15 10:47:18;;;;;;;7.93;2.67;;;;;;;13.25;83.72;100323.44;5028477;28;20042;-79
2021/10/15 10:50:05;;;;;;;5.05;2.25;;;;;;;13.10;86.09;100342.09;4986722;28;20129;-78
2021/10/15 10:52:39;;;;;;;6.63;2.83;;;;;;;12.88;90.09;100345.47;5010724;28;20451;-84
2021/10/15 10:55:06;;;;;;;8.68;2.95;;;;;;;12.43;94.84;100344.34;4987425;28;20061;-80
2021/10/15 10:57:40;;;;;;;10.13;3.22;;;;;;;12.05;100.00;100352.31;4991005;28;20046;-82
2021/10/15 11:00:18;;;;;;;10.88;4.20;;;;;;;12.04;100.00;100350.63;4997056;28;20075;-82
2021/10/15 11:02:54;;;;;;;12.82;3.83;;;;;;;11.93;100.00;100345.22;5011044;28;20045;-80
2021/10/15 11:05:39;;;;;;;8.68;3.97;;;;;;;11.79;100.00;100346.13;5005111;28;20577;-82
2021/10/15 11:08:23;;;;;;;6.78;3.10;;;;;;;11.53;100.00;100348.78;4994286;28;20045;-83
2021/10/15 11:11:19;;;;;;;8.45;3.83;;;;;;;11.49;100.00;100357.84;5035933;28;20378;-79
2021/10/15 11:13:46;;;;;;;7.10;4.40;;;;;;;11.60;100.00;100347.41;5005404;28;20536;-77
2021/10/15 11:16:27;;;;;;;9.60;3.83;;;;;;;11.53;100.00;100358.47;4992951;28;20071;-78
2021/10/15 11:18:54;;;;;;;6.43;4.05;;;;;;;11.44;100.00;100357.31;5001817;28;20037;-78
2021/10/15 11:21:25;;;;;;;8.40;4.00;;;;;;;11.40;100.00;100359.28;4985476;28;20049;-77
2021/10/15 11:23:53;;;;;;;11.13;3.92;;;;;;;11.44;100.00;100361.69;5001636;28;20209;-76
2021/10/15 11:26:33;;;;;;;7.20;3.50;;;;;;;11.37;100.00;100370.03;5018534;28;20123;-78
2021/10/15 11:29:06;;;;;;;13.82;3.88;;;;;;;11.40;100.00;100361.09;5006291;28;20119;-81
2021/10/15 11:31:33;;;;;;;8.43;4.00;;;;;;;11.45;100.00;100364.25;4993155;28;20056;-79
2021/10/15 11:34:10;;;;;;;8.68;3.95;;;;;;;11.36;100.00;100370.97;4985105;28;20493;-83
2021/10/15 11:36:38;;;;;;;14.13;4.80;;;;;;;11.32;100.00;100380.03;4995313;28;20166;-78
2021/10/15 11:39:05;;;;;;;11.15;4.88;;;;;;;11.32;100.00;100379.19;4994721;28;20068;-82
2021/10/15 11:41:32;;;;;;;9.27;4.85;;;;;;;11.24;100.00;100382.31;5017307;28;20053;-80